sensor_id;sensor_type;location;lat;lon;timestamp;pressure;altitude;pressure_sealevel;temperature;humidity
56074;BME280;41950;55.840;37.442;2023-08-24T00:00:42;99169.69;;;14.91;98.89
56074;BME280;41950;55.840;37.442;2023-08-24T00:03:08;99164.31;;;14.94;98.64
56074;BME280;41950;55.840;37.442;2023-08-24T00:05:35;99126.09;;;14.71;97.40
56074;BME280;41950;55.840;37.442;2023-08-24T00:08:05;99113.44;;;14.62;97.02
56074;BME280;41950;55.840;37.442;2023-08-24T00:10:31;99111.56;;;14.65;96.43
56074;BME280;41950;55.840;37.442;2023-08-24T00:12:57;99154.84;;;14.91;95.99
56074;BME280;41950;55.840;37.442;2023-08-24T00:15:23;99121.41;;;14.59;95.71
56074;BME280;41950;55.840;37.442;2023-08-24T00:17:49;99155.34;;;14.79;95.21
56074;BME280;41950;55.840;37.442;2023-08-24T00:20:15;99144.47;;;14.69;95.06
56074;BME280;41950;55.840;37.442;2023-08-24T00:22:41;99161.50;;;14.78;94.80
56074;BME280;41950;55.840;37.442;2023-08-24T00:25:07;99184.69;;;14.86;94.03
56074;BME280;41950;55.840;37.442;2023-08-24T00:27:34;99192.41;;;14.89;93.80
56074;BME280;41950;55.840;37.442;2023-08-24T00:30:03;99130.31;;;14.55;93.54
56074;BME280;41950;55.840;37.442;2023-08-24T00:32:36;99149.22;;;14.60;93.63
56074;BME280;41950;55.840;37.442;2023-08-24T00:35:04;99143.09;;;14.61;93.60
56074;BME280;41950;55.840;37.442;2023-08-24T00:37:32;99189.66;;;14.92;93.78
56074;BME280;41950;55.840;37.442;2023-08-24T00:40:00;99191.22;;;14.96;93.33
56074;BME280;41950;55.840;37.442;2023-08-24T00:42:29;99188.88;;;14.90;93.59
56074;BME280;41950;55.840;37.442;2023-08-24T00:44:55;99168.31;;;14.82;93.68
56074;BME280;41950;55.840;37.442;2023-08-24T00:47:21;99172.41;;;14.88;93.21
56074;BME280;41950;55.840;37.442;2023-08-24T00:49:47;99155.63;;;14.73;93.44
56074;BME280;41950;55.840;37.442;2023-08-24T00:52:13;99129.00;;;14.65;93.19
56074;BME280;41950;55.840;37.442;2023-08-24T00:54:40;99140.88;;;14.72;93.00
56074;BME280;41950;55.840;37.442;2023-08-24T00:57:06;99185.66;;;15.03;93.00
56074;BME280;41950;55.840;37.442;2023-08-24T00:59:34;99181.75;;;14.93;92.99
56074;BME280;41950;55.840;37.442;2023-08-24T01:02:00;99172.34;;;14.89;93.01
56074;BME280;41950;55.840;37.442;2023-08-24T01:04:25;99116.78;;;14.65;92.99
56074;BME280;41950;55.840;37.442;2023-08-24T01:06:51;99131.25;;;14.72;92.52
56074;BME280;41950;55.840;37.442;2023-08-24T01:09:18;99191.66;;;15.05;92.81
56074;BME280;41950;55.840;37.442;2023-08-24T01:12:02;99176.84;;;15.06;92.98
56074;BME280;41950;55.840;37.442;2023-08-24T01:14:41;99137.75;;;14.84;93.17
56074;BME280;41950;55.840;37.442;2023-08-24T01:17:14;99157.97;;;14.99;93.30
56074;BME280;41950;55.840;37.442;2023-08-24T01:19:43;99186.13;;;15.13;93.23
56074;BME280;41950;55.840;37.442;2023-08-24T01:22:32;99182.53;;;15.15;92.85
56074;BME280;41950;55.840;37.442;2023-08-24T01:27:34;99187.91;;;15.12;93.27
56074;BME280;41950;55.840;37.442;2023-08-24T01:30:03;99169.19;;;15.01;93.16
56074;BME280;41950;55.840;37.442;2023-08-24T01:32:33;99192.34;;;15.10;93.34
56074;BME280;41950;55.840;37.442;2023-08-24T01:35:01;99190.75;;;15.06;93.58
56074;BME280;41950;55.840;37.442;2023-08-24T01:37:27;99197.72;;;15.07;93.89
56074;BME280;41950;55.840;37.442;2023-08-24T01:40:20;99171.56;;;14.87;93.70
56074;BME280;41950;55.840;37.442;2023-08-24T01:42:55;99192.47;;;15.07;94.02
56074;BME280;41950;55.840;37.442;2023-08-24T01:45:24;99162.88;;;14.87;93.99
56074;BME280;41950;55.840;37.442;2023-08-24T01:47:54;99148.31;;;14.81;94.04
56074;BME280;41950;55.840;37.442;2023-08-24T01:50:20;99168.81;;;14.90;94.16
56074;BME280;41950;55.840;37.442;2023-08-24T01:52:47;99193.63;;;15.00;94.18
56074;BME280;41950;55.840;37.442;2023-08-24T01:55:13;99147.06;;;14.69;94.06
56074;BME280;41950;55.840;37.442;2023-08-24T01:57:38;99076.06;;;14.19;94.68
56074;BME280;41950;55.840;37.442;2023-08-24T02:00:05;99175.38;;;14.80;94.98
56074;BME280;41950;55.840;37.442;2023-08-24T02:02:35;99200.03;;;14.93;94.76
56074;BME280;41950;55.840;37.442;2023-08-24T02:05:02;99134.47;;;14.59;94.61
56074;BME280;41950;55.840;37.442;2023-08-24T02:07:29;99154.19;;;14.66;94.71
56074;BME280;41950;55.840;37.442;2023-08-24T02:09:55;99194.88;;;14.92;94.59
56074;BME280;41950;55.840;37.442;2023-08-24T02:12:21;99191.44;;;14.91;94.50
56074;BME280;41950;55.840;37.442;2023-08-24T02:14:47;99161.03;;;14.68;94.54
56074;BME280;41950;55.840;37.442;2023-08-24T02:17:33;99165.16;;;14.74;94.57
56074;BME280;41950;55.840;37.442;2023-08-24T02:19:59;99174.56;;;14.78;94.30
56074;BME280;41950;55.840;37.442;2023-08-24T02:22:25;99195.16;;;14.86;94.61
56074;BME280;41950;55.840;37.442;2023-08-24T02:24:51;99197.06;;;14.82;94.75
56074;BME280;41950;55.840;37.442;2023-08-24T02:27:16;99173.38;;;14.65;95.03
56074;BME280;41950;55.840;37.442;2023-08-24T02:29:42;99168.03;;;14.68;95.05
56074;BME280;41950;55.840;37.442;2023-08-24T02:32:08;99167.44;;;14.61;95.02
56074;BME280;41950;55.840;37.442;2023-08-24T02:34:33;99189.72;;;14.70;95.04
56074;BME280;41950;55.840;37.442;2023-08-24T02:36:59;99139.41;;;14.44;94.87
56074;BME280;41950;55.840;37.442;2023-08-24T02:39:25;99168.38;;;14.60;95.10
56074;BME280;41950;55.840;37.442;2023-08-24T02:41:51;99016.47;;;13.66;95.05
56074;BME280;41950;55.840;37.442;2023-08-24T02:44:17;99197.28;;;14.76;95.37
56074;BME280;41950;55.840;37.442;2023-08-24T02:46:48;99205.91;;;14.78;95.33
56074;BME280;41950;55.840;37.442;2023-08-24T02:49:14;99135.13;;;14.42;95.46
56074;BME280;41950;55.840;37.442;2023-08-24T02:51:40;99182.06;;;14.65;95.22
56074;BME280;41950;55.840;37.442;2023-08-24T02:54:06;99149.72;;;14.47;94.97
56074;BME280;41950;55.840;37.442;2023-08-24T02:56:32;99204.03;;;14.81;94.78
56074;BME280;41950;55.840;37.442;2023-08-24T02:58:57;99188.78;;;14.71;94.77
56074;BME280;41950;55.840;37.442;2023-08-24T03:01:23;99186.38;;;14.66;94.97
56074;BME280;41950;55.840;37.442;2023-08-24T03:03:48;99171.75;;;14.62;94.86
56074;BME280;41950;55.840;37.442;2023-08-24T03:06:15;99146.41;;;14.44;94.65
56074;BME280;41950;55.840;37.442;2023-08-24T03:08:40;99158.13;;;14.56;94.61
56074;BME280;41950;55.840;37.442;2023-08-24T03:11:06;99154.94;;;14.47;94.27
56074;BME280;41950;55.840;37.442;2023-08-24T03:13:33;99194.03;;;14.71;93.94
56074;BME280;41950;55.840;37.442;2023-08-24T03:16:03;99182.19;;;14.62;93.70
56074;BME280;41950;55.840;37.442;2023-08-24T03:18:29;99207.50;;;14.82;93.98
56074;BME280;41950;55.840;37.442;2023-08-24T03:20:55;99168.28;;;14.62;93.96
56074;BME280;41950;55.840;37.442;2023-08-24T03:23:21;99221.00;;;14.92;93.64
56074;BME280;41950;55.840;37.442;2023-08-24T03:25:49;99219.13;;;14.95;93.55
56074;BME280;41950;55.840;37.442;2023-08-24T03:28:14;99224.41;;;14.94;93.10
56074;BME280;41950;55.840;37.442;2023-08-24T03:30:46;99215.72;;;14.93;92.61
56074;BME280;41950;55.840;37.442;2023-08-24T03:33:12;99194.53;;;14.79;92.33
56074;BME280;41950;55.840;37.442;2023-08-24T03:35:38;99172.53;;;14.64;92.55
56074;BME280;41950;55.840;37.442;2023-08-24T03:38:03;99188.72;;;14.72;92.34
56074;BME280;41950;55.840;37.442;2023-08-24T03:40:29;99187.59;;;14.79;92.54
56074;BME280;41950;55.840;37.442;2023-08-24T03:42:56;99202.94;;;14.87;92.22
56074;BME280;41950;55.840;37.442;2023-08-24T03:45:22;99194.94;;;14.90;91.72
56074;BME280;41950;55.840;37.442;2023-08-24T03:47:48;99220.38;;;15.07;91.51
56074;BME280;41950;55.840;37.442;2023-08-24T03:50:15;99221.16;;;15.09;91.25
56074;BME280;41950;55.840;37.442;2023-08-24T03:52:41;99196.25;;;15.00;91.33
56074;BME280;41950;55.840;37.442;2023-08-24T03:55:07;99199.78;;;14.99;91.32
56074;BME280;41950;55.840;37.442;2023-08-24T03:57:33;99173.97;;;14.92;91.14
56074;BME280;41950;55.840;37.442;2023-08-24T03:59:59;99208.09;;;15.09;90.91
56074;BME280;41950;55.840;37.442;2023-08-24T04:02:26;99194.69;;;14.96;91.02
56074;BME280;41950;55.840;37.442;2023-08-24T04:04:52;99181.25;;;14.85;91.61
56074;BME280;41950;55.840;37.442;2023-08-24T04:07:18;99219.41;;;15.09;91.53
56074;BME280;41950;55.840;37.442;2023-08-24T04:09:43;99215.19;;;15.05;91.80
56074;BME280;41950;55.840;37.442;2023-08-24T04:12:11;99195.72;;;14.92;91.75
56074;BME280;41950;55.840;37.442;2023-08-24T04:14:36;99196.50;;;14.94;91.72
56074;BME280;41950;55.840;37.442;2023-08-24T04:17:02;99156.03;;;14.64;91.90
56074;BME280;41950;55.840;37.442;2023-08-24T04:19:28;99233.44;;;15.07;92.37
56074;BME280;41950;55.840;37.442;2023-08-24T04:21:54;99200.19;;;14.90;92.38
56074;BME280;41950;55.840;37.442;2023-08-24T04:24:20;99201.59;;;14.97;92.05
56074;BME280;41950;55.840;37.442;2023-08-24T04:26:45;99227.75;;;15.18;91.95
56074;BME280;41950;55.840;37.442;2023-08-24T04:29:12;99186.19;;;14.91;91.50
56074;BME280;41950;55.840;37.442;2023-08-24T04:31:37;99207.19;;;15.10;91.62
56074;BME280;41950;55.840;37.442;2023-08-24T04:34:06;99158.50;;;14.87;91.30
56074;BME280;41950;55.840;37.442;2023-08-24T04:36:31;99175.34;;;15.00;91.23
56074;BME280;41950;55.840;37.442;2023-08-24T04:38:57;99135.91;;;14.86;90.82
56074;BME280;41950;55.840;37.442;2023-08-24T04:41:23;99063.56;;;14.47;90.27
56074;BME280;41950;55.840;37.442;2023-08-24T04:43:48;99230.25;;;15.60;90.35
56074;BME280;41950;55.840;37.442;2023-08-24T04:46:14;99180.28;;;15.27;89.94
56074;BME280;41950;55.840;37.442;2023-08-24T04:48:40;99176.97;;;15.23;89.75
56074;BME280;41950;55.840;37.442;2023-08-24T04:51:05;99231.78;;;15.65;89.59
56074;BME280;41950;55.840;37.442;2023-08-24T04:53:31;99240.31;;;15.69;89.20
56074;BME280;41950;55.840;37.442;2023-08-24T04:55:57;99214.38;;;15.64;88.82
56074;BME280;41950;55.840;37.442;2023-08-24T04:58:22;99214.31;;;15.66;88.83
56074;BME280;41950;55.840;37.442;2023-08-24T05:00:48;99226.88;;;15.76;88.76
56074;BME280;41950;55.840;37.442;2023-08-24T05:03:15;99092.91;;;14.93;88.03
56074;BME280;41950;55.840;37.442;2023-08-24T05:05:41;99232.59;;;15.85;88.00
56074;BME280;41950;55.840;37.442;2023-08-24T05:08:07;99203.78;;;15.67;88.04
56074;BME280;41950;55.840;37.442;2023-08-24T05:10:36;99245.44;;;15.91;87.90
56074;BME280;41950;55.840;37.442;2023-08-24T05:13:05;99198.53;;;15.67;88.07
56074;BME280;41950;55.840;37.442;2023-08-24T05:15:30;99190.91;;;15.63;87.35
56074;BME280;41950;55.840;37.442;2023-08-24T05:17:56;99240.22;;;15.91;87.82
56074;BME280;41950;55.840;37.442;2023-08-24T05:20:26;99164.28;;;15.53;87.20
56074;BME280;41950;55.840;37.442;2023-08-24T05:22:52;99241.19;;;16.07;86.87
56074;BME280;41950;55.840;37.442;2023-08-24T05:25:23;99190.81;;;15.83;86.23
56074;BME280;41950;55.840;37.442;2023-08-24T05:27:49;99231.84;;;16.01;86.13
56074;BME280;41950;55.840;37.442;2023-08-24T05:30:15;99213.59;;;15.81;86.01
56074;BME280;41950;55.840;37.442;2023-08-24T05:32:40;99236.66;;;15.92;86.32
56074;BME280;41950;55.840;37.442;2023-08-24T05:35:09;99152.69;;;15.40;86.08
56074;BME280;41950;55.840;37.442;2023-08-24T05:37:35;99174.72;;;15.53;86.42
56074;BME280;41950;55.840;37.442;2023-08-24T05:40:01;99232.69;;;16.02;85.94
56074;BME280;41950;55.840;37.442;2023-08-24T05:42:30;99231.19;;;16.15;85.91
56074;BME280;41950;55.840;37.442;2023-08-24T05:44:56;99158.88;;;15.76;85.10
56074;BME280;41950;55.840;37.442;2023-08-24T05:47:21;99224.53;;;16.08;85.08
56074;BME280;41950;55.840;37.442;2023-08-24T05:49:47;99233.09;;;16.12;85.78
56074;BME280;41950;55.840;37.442;2023-08-24T05:52:13;99238.47;;;16.08;85.72
56074;BME280;41950;55.840;37.442;2023-08-24T05:54:39;99245.78;;;16.02;85.83
56074;BME280;41950;55.840;37.442;2023-08-24T05:57:05;99181.47;;;15.59;85.58
56074;BME280;41950;55.840;37.442;2023-08-24T05:59:32;99228.59;;;15.77;86.03
56074;BME280;41950;55.840;37.442;2023-08-24T06:01:58;99213.38;;;15.67;85.96
56074;BME280;41950;55.840;37.442;2023-08-24T06:04:24;99249.38;;;15.81;86.07
56074;BME280;41950;55.840;37.442;2023-08-24T06:06:50;99224.41;;;15.53;86.33
56074;BME280;41950;55.840;37.442;2023-08-24T06:09:15;99235.81;;;15.52;87.09
56074;BME280;41950;55.840;37.442;2023-08-24T06:11:41;99220.91;;;15.34;87.33
56074;BME280;41950;55.840;37.442;2023-08-24T06:14:07;99194.03;;;15.11;87.71
56074;BME280;41950;55.840;37.442;2023-08-24T06:16:33;99229.31;;;15.22;87.62
56074;BME280;41950;55.840;37.442;2023-08-24T06:18:59;99285.25;;;15.38;87.98
56074;BME280;41950;55.840;37.442;2023-08-24T06:21:24;99208.34;;;14.82;87.65
56074;BME280;41950;55.840;37.442;2023-08-24T06:23:50;99249.84;;;15.10;88.11
56074;BME280;41950;55.840;37.442;2023-08-24T06:26:17;99247.66;;;15.00;88.40
56074;BME280;41950;55.840;37.442;2023-08-24T06:28:43;99244.06;;;15.02;88.82
56074;BME280;41950;55.840;37.442;2023-08-24T06:31:09;99251.78;;;15.05;89.09
56074;BME280;41950;55.840;37.442;2023-08-24T06:33:35;99287.81;;;15.19;89.14
56074;BME280;41950;55.840;37.442;2023-08-24T06:36:02;99212.75;;;14.60;89.14
56074;BME280;41950;55.840;37.442;2023-08-24T06:38:31;99277.19;;;15.02;89.84
56074;BME280;41950;55.840;37.442;2023-08-24T06:41:00;99266.53;;;15.06;89.78
56074;BME280;41950;55.840;37.442;2023-08-24T06:43:29;99274.88;;;15.16;89.08
56074;BME280;41950;55.840;37.442;2023-08-24T06:45:55;99290.72;;;15.32;88.77
56074;BME280;41950;55.840;37.442;2023-08-24T06:48:21;99266.19;;;15.15;88.26
56074;BME280;41950;55.840;37.442;2023-08-24T06:50:46;99287.03;;;15.17;87.90
56074;BME280;41950;55.840;37.442;2023-08-24T06:53:12;99302.63;;;15.19;88.52
56074;BME280;41950;55.840;37.442;2023-08-24T06:55:38;99279.75;;;15.03;88.66
56074;BME280;41950;55.840;37.442;2023-08-24T06:58:03;99276.53;;;14.97;88.55
56074;BME280;41950;55.840;37.442;2023-08-24T07:00:33;99288.25;;;15.08;88.68
56074;BME280;41950;55.840;37.442;2023-08-24T07:03:01;99300.59;;;15.25;88.32
56074;BME280;41950;55.840;37.442;2023-08-24T07:05:29;99303.09;;;15.28;88.09
56074;BME280;41950;55.840;37.442;2023-08-24T07:07:55;99273.38;;;15.10;87.99
56074;BME280;41950;55.840;37.442;2023-08-24T07:10:21;99298.41;;;15.36;87.97
56074;BME280;41950;55.840;37.442;2023-08-24T07:12:46;99310.09;;;15.48;87.85
56074;BME280;41950;55.840;37.442;2023-08-24T07:15:13;99295.03;;;15.33;87.23
56074;BME280;41950;55.840;37.442;2023-08-24T07:17:38;99308.00;;;15.36;87.32
56074;BME280;41950;55.840;37.442;2023-08-24T07:20:05;99315.44;;;15.25;87.35
56074;BME280;41950;55.840;37.442;2023-08-24T07:22:32;99280.25;;;14.91;87.48
56074;BME280;41950;55.840;37.442;2023-08-24T07:24:57;99309.88;;;15.12;87.81
56074;BME280;41950;55.840;37.442;2023-08-24T07:27:23;99313.63;;;15.27;88.21
56074;BME280;41950;55.840;37.442;2023-08-24T07:29:52;99288.50;;;15.23;86.85
56074;BME280;41950;55.840;37.442;2023-08-24T07:32:17;99305.47;;;15.34;86.23
56074;BME280;41950;55.840;37.442;2023-08-24T07:34:44;99317.50;;;15.38;85.93
56074;BME280;41950;55.840;37.442;2023-08-24T07:37:10;99168.28;;;14.40;85.82
56074;BME280;41950;55.840;37.442;2023-08-24T07:39:38;99306.56;;;15.08;85.79
56074;BME280;41950;55.840;37.442;2023-08-24T07:42:03;99339.63;;;15.09;86.13
56074;BME280;41950;55.840;37.442;2023-08-24T07:44:29;99287.19;;;14.70;86.77
56074;BME280;41950;55.840;37.442;2023-08-24T07:46:55;99294.50;;;14.84;86.75
56074;BME280;41950;55.840;37.442;2023-08-24T07:49:21;99318.03;;;15.04;86.75
56074;BME280;41950;55.840;37.442;2023-08-24T07:51:47;99316.69;;;15.16;86.26
56074;BME280;41950;55.840;37.442;2023-08-24T07:54:12;99310.75;;;15.12;85.46
56074;BME280;41950;55.840;37.442;2023-08-24T07:56:38;99271.78;;;14.86;84.97
56074;BME280;41950;55.840;37.442;2023-08-24T07:59:04;99180.38;;;14.42;84.48
56074;BME280;41950;55.840;37.442;2023-08-24T08:01:30;99325.56;;;15.53;84.72
56074;BME280;41950;55.840;37.442;2023-08-24T08:03:56;99330.91;;;15.71;84.19
56074;BME280;41950;55.840;37.442;2023-08-24T08:06:22;99251.56;;;15.51;83.33
56074;BME280;41950;55.840;37.442;2023-08-24T08:08:50;99325.41;;;16.17;81.87
56074;BME280;41950;55.840;37.442;2023-08-24T08:11:17;99334.59;;;16.25;81.48
56074;BME280;41950;55.840;37.442;2023-08-24T08:13:43;99336.16;;;16.29;81.18
56074;BME280;41950;55.840;37.442;2023-08-24T08:16:09;99333.97;;;16.20;81.04
56074;BME280;41950;55.840;37.442;2023-08-24T08:18:36;99326.72;;;16.06;81.62
56074;BME280;41950;55.840;37.442;2023-08-24T08:21:15;99260.56;;;15.65;82.09
56074;BME280;41950;55.840;37.442;2023-08-24T08:23:43;99334.50;;;16.08;82.22
56074;BME280;41950;55.840;37.442;2023-08-24T08:26:10;99335.28;;;16.10;82.25
56074;BME280;41950;55.840;37.442;2023-08-24T08:28:36;99258.00;;;15.64;81.30
56074;BME280;41950;55.840;37.442;2023-08-24T08:31:01;99306.41;;;15.93;80.66
56074;BME280;41950;55.840;37.442;2023-08-24T08:33:28;99284.72;;;15.70;80.13
56074;BME280;41950;55.840;37.442;2023-08-24T08:35:54;99331.28;;;15.83;80.27
56074;BME280;41950;55.840;37.442;2023-08-24T08:38:20;99288.72;;;15.59;80.07
56074;BME280;41950;55.840;37.442;2023-08-24T08:40:51;99350.13;;;15.91;80.26
56074;BME280;41950;55.840;37.442;2023-08-24T08:43:17;99343.97;;;15.92;80.24
56074;BME280;41950;55.840;37.442;2023-08-24T08:45:42;99345.59;;;15.94;80.17
56074;BME280;41950;55.840;37.442;2023-08-24T08:48:08;99337.97;;;16.08;79.93
56074;BME280;41950;55.840;37.442;2023-08-24T08:50:35;99340.19;;;16.18;79.87
56074;BME280;41950;55.840;37.442;2023-08-24T08:53:01;99320.09;;;16.18;79.82
56074;BME280;41950;55.840;37.442;2023-08-24T08:55:27;99332.75;;;16.27;79.20
56074;BME280;41950;55.840;37.442;2023-08-24T08:57:56;99330.28;;;16.24;78.96
56074;BME280;41950;55.840;37.442;2023-08-24T09:00:24;99336.00;;;16.32;78.70
56074;BME280;41950;55.840;37.442;2023-08-24T09:02:51;99319.03;;;16.22;78.37
56074;BME280;41950;55.840;37.442;2023-08-24T09:05:18;99330.91;;;16.29;78.61
56074;BME280;41950;55.840;37.442;2023-08-24T09:07:46;99335.50;;;16.43;78.69
56074;BME280;41950;55.840;37.442;2023-08-24T09:10:13;99323.38;;;16.41;78.06
56074;BME280;41950;55.840;37.442;2023-08-24T09:12:39;99321.06;;;16.34;78.00
56074;BME280;41950;55.840;37.442;2023-08-24T09:15:07;99278.47;;;16.12;77.45
56074;BME280;41950;55.840;37.442;2023-08-24T09:17:33;99340.53;;;16.48;77.95
56074;BME280;41950;55.840;37.442;2023-08-24T09:20:01;99353.19;;;16.57;77.42
56074;BME280;41950;55.840;37.442;2023-08-24T09:22:36;99332.69;;;16.48;77.51
56074;BME280;41950;55.840;37.442;2023-08-24T09:25:09;99318.03;;;16.25;77.52
56074;BME280;41950;55.840;37.442;2023-08-24T09:27:35;99323.53;;;16.37;76.93
56074;BME280;41950;55.840;37.442;2023-08-24T09:30:01;99328.63;;;16.59;76.52
56074;BME280;41950;55.840;37.442;2023-08-24T09:32:30;99356.44;;;16.99;75.99
56074;BME280;41950;55.840;37.442;2023-08-24T09:35:20;99319.25;;;16.91;75.08
56074;BME280;41950;55.840;37.442;2023-08-24T09:37:49;99357.97;;;17.21;74.07
56074;BME280;41950;55.840;37.442;2023-08-24T09:40:15;99355.13;;;17.25;74.01
56074;BME280;41950;55.840;37.442;2023-08-24T09:42:42;99344.59;;;17.27;72.95
56074;BME280;41950;55.840;37.442;2023-08-24T09:45:11;99359.53;;;17.42;73.05
56074;BME280;41950;55.840;37.442;2023-08-24T09:47:37;99355.16;;;17.43;72.84
56074;BME280;41950;55.840;37.442;2023-08-24T09:50:04;99336.25;;;17.36;72.59
56074;BME280;41950;55.840;37.442;2023-08-24T09:52:34;99323.75;;;17.41;72.31
56074;BME280;41950;55.840;37.442;2023-08-24T09:55:04;99329.06;;;17.40;72.57
56074;BME280;41950;55.840;37.442;2023-08-24T09:57:39;99327.53;;;17.36;72.74
56074;BME280;41950;55.840;37.442;2023-08-24T10:00:07;99360.94;;;17.49;73.53
56074;BME280;41950;55.840;37.442;2023-08-24T10:05:13;99354.94;;;17.30;72.86
56074;BME280;41950;55.840;37.442;2023-08-24T10:07:53;99323.56;;;16.92;72.39
56074;BME280;41950;55.840;37.442;2023-08-24T10:10:20;99349.03;;;17.08;72.86
56074;BME280;41950;55.840;37.442;2023-08-24T10:12:55;99328.06;;;17.08;73.10
56074;BME280;41950;55.840;37.442;2023-08-24T10:15:22;99349.59;;;17.32;72.83
56074;BME280;41950;55.840;37.442;2023-08-24T10:17:50;99351.06;;;17.37;72.38
56074;BME280;41950;55.840;37.442;2023-08-24T10:20:19;99358.94;;;17.37;71.39
56074;BME280;41950;55.840;37.442;2023-08-24T10:22:46;99355.84;;;17.46;71.45
56074;BME280;41950;55.840;37.442;2023-08-24T10:25:13;99357.69;;;17.61;71.21
56074;BME280;41950;55.840;37.442;2023-08-24T10:27:40;99324.19;;;17.49;70.38
56074;BME280;41950;55.840;37.442;2023-08-24T10:30:11;99329.91;;;17.40;70.25
56074;BME280;41950;55.840;37.442;2023-08-24T10:32:38;99364.63;;;17.45;69.99
56074;BME280;41950;55.840;37.442;2023-08-24T10:35:05;99368.03;;;17.47;70.44
56074;BME280;41950;55.840;37.442;2023-08-24T10:37:31;99329.53;;;17.48;69.66
56074;BME280;41950;55.840;37.442;2023-08-24T10:39:59;99336.09;;;17.56;69.51
56074;BME280;41950;55.840;37.442;2023-08-24T10:42:26;99357.00;;;17.75;68.88
56074;BME280;41950;55.840;37.442;2023-08-24T10:44:52;99319.59;;;17.37;68.50
56074;BME280;41950;55.840;37.442;2023-08-24T10:47:22;99347.19;;;17.44;68.95
56074;BME280;41950;55.840;37.442;2023-08-24T10:52:35;99334.63;;;17.34;69.09
56074;BME280;41950;55.840;37.442;2023-08-24T10:55:03;99372.00;;;17.56;68.89
56074;BME280;41950;55.840;37.442;2023-08-24T10:57:36;99368.34;;;17.58;68.19
56074;BME280;41950;55.840;37.442;2023-08-24T11:00:07;99358.47;;;17.64;67.90
56074;BME280;41950;55.840;37.442;2023-08-24T11:02:43;99367.66;;;17.89;67.80
56074;BME280;41950;55.840;37.442;2023-08-24T11:05:44;99368.31;;;18.10;67.22
56074;BME280;41950;55.840;37.442;2023-08-24T11:08:10;99373.00;;;18.04;67.09
56074;BME280;41950;55.840;37.442;2023-08-24T11:13:27;99341.66;;;17.85;67.39
56074;BME280;41950;55.840;37.442;2023-08-24T11:15:53;99334.09;;;18.12;65.41
56074;BME280;41950;55.840;37.442;2023-08-24T11:18:28;99325.03;;;18.33;63.52
56074;BME280;41950;55.840;37.442;2023-08-24T11:23:25;99366.09;;;19.74;59.46
56074;BME280;41950;55.840;37.442;2023-08-24T11:25:52;99353.78;;;19.89;57.97
56074;BME280;41950;55.840;37.442;2023-08-24T11:28:29;99321.56;;;19.56;57.88
56074;BME280;41950;55.840;37.442;2023-08-24T11:30:56;99373.16;;;19.28;58.23
56074;BME280;41950;55.840;37.442;2023-08-24T11:33:32;99344.47;;;18.78;59.78
56074;BME280;41950;55.840;37.442;2023-08-24T11:35:59;99374.25;;;18.78;60.81
56074;BME280;41950;55.840;37.442;2023-08-24T11:38:35;99346.81;;;18.51;61.81
56074;BME280;41950;55.840;37.442;2023-08-24T11:41:01;99369.03;;;18.45;62.29
56074;BME280;41950;55.840;37.442;2023-08-24T11:43:27;99360.34;;;18.28;62.58
56074;BME280;41950;55.840;37.442;2023-08-24T11:45:54;99359.81;;;18.05;63.22
56074;BME280;41950;55.840;37.442;2023-08-24T11:48:29;99368.19;;;17.96;62.80
56074;BME280;41950;55.840;37.442;2023-08-24T11:50:57;99378.16;;;17.89;63.93
56074;BME280;41950;55.840;37.442;2023-08-24T11:53:23;99368.50;;;17.73;63.64
56074;BME280;41950;55.840;37.442;2023-08-24T11:55:52;99321.28;;;17.38;62.92
56074;BME280;41950;55.840;37.442;2023-08-24T11:58:18;99383.00;;;17.80;63.48
56074;BME280;41950;55.840;37.442;2023-08-24T12:00:45;99372.66;;;17.77;63.15
56074;BME280;41950;55.840;37.442;2023-08-24T12:03:12;99353.94;;;17.67;63.21
56074;BME280;41950;55.840;37.442;2023-08-24T12:05:38;99367.59;;;17.74;62.89
56074;BME280;41950;55.840;37.442;2023-08-24T12:08:04;99383.00;;;17.80;63.18
56074;BME280;41950;55.840;37.442;2023-08-24T12:10:31;99376.91;;;17.62;63.60
56074;BME280;41950;55.840;37.442;2023-08-24T12:13:06;99368.34;;;17.76;63.50
56074;BME280;41950;55.840;37.442;2023-08-24T12:15:36;99354.97;;;17.80;63.47
56074;BME280;41950;55.840;37.442;2023-08-24T12:18:12;99337.00;;;17.90;63.15
56074;BME280;41950;55.840;37.442;2023-08-24T12:20:40;99376.28;;;18.25;63.40
56074;BME280;41950;55.840;37.442;2023-08-24T12:23:06;99371.31;;;18.36;62.95
56074;BME280;41950;55.840;37.442;2023-08-24T12:25:36;99373.44;;;18.45;61.70
56074;BME280;41950;55.840;37.442;2023-08-24T12:30:51;99372.44;;;18.47;60.83
56074;BME280;41950;55.840;37.442;2023-08-24T12:33:28;99362.44;;;18.38;61.24
56074;BME280;41950;55.840;37.442;2023-08-24T12:35:55;99333.72;;;18.02;61.13
56074;BME280;41950;55.840;37.442;2023-08-24T12:38:22;99356.63;;;18.16;62.64
56074;BME280;41950;55.840;37.442;2023-08-24T12:40:50;99358.31;;;18.33;62.36
56074;BME280;41950;55.840;37.442;2023-08-24T12:43:16;99362.72;;;18.32;62.62
56074;BME280;41950;55.840;37.442;2023-08-24T12:45:42;99347.47;;;18.23;61.96
56074;BME280;41950;55.840;37.442;2023-08-24T12:48:07;99361.72;;;18.35;62.44
56074;BME280;41950;55.840;37.442;2023-08-24T12:50:34;99362.44;;;18.38;62.56
56074;BME280;41950;55.840;37.442;2023-08-24T12:53:00;99368.19;;;18.45;62.33
56074;BME280;41950;55.840;37.442;2023-08-24T12:55:27;99373.94;;;18.36;60.52
56074;BME280;41950;55.840;37.442;2023-08-24T12:57:52;99300.75;;;17.81;60.64
56074;BME280;41950;55.840;37.442;2023-08-24T13:00:19;99367.97;;;18.16;60.42
56074;BME280;41950;55.840;37.442;2023-08-24T13:02:45;99362.91;;;18.13;61.27
56074;BME280;41950;55.840;37.442;2023-08-24T13:05:10;99365.19;;;18.19;62.17
56074;BME280;41950;55.840;37.442;2023-08-24T13:07:36;99348.44;;;18.05;61.67